Time;durP1;ratioP1;P1;durP2;ratioP2;P2;SDS_P1;SDS_P2;PMS_P1;PMS_P2;Temp;Humidity;BMP_temperature;BMP_pressure;BME280_temperature;BME280_humidity;BME280_pressure;Samples;Min_cycle;Max_cycle;Signal;HPM_P1;HPM_P2
2022/11/13 00:01:22;;;;;;;18.58;12.15;;;9.10;72.30;;;;;;2305914;58;21074;-80
2022/11/13 00:03:50;;;;;;;20.40;13.32;;;9.10;72.20;;;;;;2305924;58;21117;-80
2022/11/13 00:06:18;;;;;;;18.40;12.45;;;9.10;72.10;;;;;;2305720;58;21078;-80
2022/11/13 00:08:45;;;;;;;22.13;13.13;;;9.10;72.10;;;;;;2304672;58;21062;-80
2022/11/13 00:13:50;;;;;;;16.65;10.60;;;9.00;72.00;;;;;;2357072;57;22038;-56
2022/11/13 00:16:19;;;;;;;18.83;12.73;;;9.00;72.30;;;;;;2369713;56;21111;-56
2022/11/13 00:18:47;;;;;;;20.88;12.63;;;9.00;72.30;;;;;;2376368;56;21562;-56
2022/11/13 00:21:16;;;;;;;14.35;11.20;;;9.00;72.40;;;;;;2376231;56;21052;-56
2022/11/13 00:23:43;;;;;;;14.60;9.68;;;9.00;73.40;;;;;;2375523;56;21586;-57
2022/11/13 00:26:13;;;;;;;14.65;9.90;;;9.00;72.70;;;;;;2376237;56;21546;-56
2022/11/13 00:28:41;;;;;;;13.27;9.25;;;9.00;72.80;;;;;;2376049;56;21199;-57
2022/11/13 00:31:09;;;;;;;14.05;9.40;;;8.90;72.80;;;;;;2376095;56;22176;-55
2022/11/13 00:33:37;;;;;;;16.00;10.30;;;8.90;72.90;;;;;;2376189;56;21578;-55
2022/11/13 00:36:07;;;;;;;16.95;10.82;;;8.90;73.10;;;;;;2376486;56;21128;-60
2022/11/13 00:38:35;;;;;;;18.23;11.32;;;8.80;73.20;;;;;;2375688;56;21052;-59
2022/11/13 00:41:02;;;;;;;16.80;11.20;;;8.90;73.40;;;;;;2376083;56;21051;-60
2022/11/13 00:43:29;;;;;;;18.05;11.25;;;8.90;73.70;;;;;;2375304;56;21044;-60
2022/11/13 00:45:56;;;;;;;16.77;10.50;;;8.80;73.70;;;;;;2376053;56;21092;-60
2022/11/13 00:48:24;;;;;;;18.35;10.98;;;8.90;74.30;;;;;;2375939;56;21106;-59
2022/11/13 00:50:52;;;;;;;14.32;9.95;;;8.90;73.50;;;;;;2376054;56;21118;-59
2022/11/13 00:53:20;;;;;;;16.65;11.15;;;8.80;73.20;;;;;;2375736;56;21522;-57
2022/11/13 00:55:47;;;;;;;16.20;10.55;;;8.80;73.10;;;;;;2375933;56;21124;-59
2022/11/13 00:58:15;;;;;;;19.15;12.10;;;8.90;73.10;;;;;;2375854;56;21099;-60
2022/11/13 01:00:44;;;;;;;17.73;10.90;;;8.80;73.10;;;;;;2375686;56;21507;-56
2022/11/13 01:03:12;;;;;;;18.65;11.70;;;8.90;73.20;;;;;;2376078;56;21566;-60
2022/11/13 01:05:41;;;;;;;20.05;12.45;;;8.80;72.90;;;;;;2376348;56;21095;-57
2022/11/13 01:08:11;;;;;;;20.12;12.82;;;8.90;72.80;;;;;;2376083;56;21062;-57
2022/11/13 01:10:41;;;;;;;18.30;11.77;;;8.80;72.70;;;;;;2375885;56;21562;-54
2022/11/13 01:13:08;;;;;;;20.60;10.68;;;8.80;72.80;;;;;;2375408;56;21079;-56
2022/11/13 01:15:38;;;;;;;16.77;9.55;;;8.80;72.90;;;;;;2376088;56;21111;-56
2022/11/13 01:18:05;;;;;;;17.12;11.40;;;8.80;72.80;;;;;;2375705;56;21065;-57
2022/11/13 01:20:33;;;;;;;18.85;12.57;;;8.80;72.80;;;;;;2376168;56;21126;-56
2022/11/13 01:23:01;;;;;;;19.45;12.23;;;8.80;72.90;;;;;;2375468;56;21550;-55
2022/11/13 01:25:29;;;;;;;19.50;12.10;;;8.80;73.00;;;;;;2375020;56;21508;-58
2022/11/13 01:27:57;;;;;;;21.67;12.93;;;8.80;73.10;;;;;;2374735;56;21626;-57
2022/11/13 01:30:24;;;;;;;19.30;11.90;;;8.80;72.80;;;;;;2375296;56;21543;-56
2022/11/13 01:32:51;;;;;;;18.55;11.98;;;8.80;72.50;;;;;;2374571;56;21123;-57
2022/11/13 01:35:18;;;;;;;23.48;13.30;;;8.80;72.40;;;;;;2375059;56;21051;-60
2022/11/13 01:37:47;;;;;;;18.77;11.95;;;8.80;72.30;;;;;;2374465;56;21609;-56
2022/11/13 01:40:14;;;;;;;17.52;11.90;;;8.80;72.30;;;;;;2374973;56;21119;-54
2022/11/13 01:42:42;;;;;;;21.25;12.25;;;8.80;72.20;;;;;;2374760;56;21118;-55
2022/11/13 01:45:46;;;;;;;17.75;11.45;;;8.80;72.40;;;;;;2374558;56;21028;-57
2022/11/13 01:48:13;;;;;;;18.20;11.90;;;8.80;72.60;;;;;;2375206;56;21036;-56
2022/11/13 01:50:41;;;;;;;19.40;11.32;;;8.80;72.60;;;;;;2375142;56;21523;-59
2022/11/13 01:53:08;;;;;;;20.23;13.05;;;8.70;72.70;;;;;;2374914;56;21048;-60
2022/11/13 01:55:36;;;;;;;20.95;11.98;;;8.70;72.90;;;;;;2374113;56;21039;-56
2022/11/13 01:58:07;;;;;;;18.73;12.50;;;8.70;72.90;;;;;;2375174;56;21518;-55
2022/11/13 02:00:34;;;;;;;18.45;11.95;;;8.70;72.90;;;;;;2375126;56;21510;-58
2022/11/13 02:03:02;;;;;;;20.12;12.73;;;8.80;73.00;;;;;;2374262;56;21774;-57
2022/11/13 02:05:29;;;;;;;19.62;11.43;;;8.70;73.10;;;;;;2374747;56;21514;-57
2022/11/13 02:07:56;;;;;;;18.95;10.85;;;8.70;73.40;;;;;;2375027;56;21047;-58
2022/11/13 02:10:24;;;;;;;20.77;12.02;;;8.70;73.60;;;;;;2374840;56;21040;-59
2022/11/13 02:12:52;;;;;;;23.27;13.80;;;8.80;73.90;;;;;;2374447;56;21060;-59
2022/11/13 02:15:23;;;;;;;23.58;13.40;;;8.80;73.90;;;;;;2375094;56;21055;-59
2022/11/13 02:17:53;;;;;;;22.00;13.40;;;8.80;73.90;;;;;;2374769;56;21032;-62
2022/11/13 02:20:29;;;;;;;23.55;14.07;;;8.80;73.90;;;;;;2375201;56;21047;-60
2022/11/13 02:23:04;;;;;;;19.87;12.60;;;8.80;73.90;;;;;;2374872;56;22210;-60
2022/11/13 02:25:32;;;;;;;20.73;12.40;;;8.90;73.90;;;;;;2374956;56;21496;-59
2022/11/13 02:27:59;;;;;;;25.23;14.43;;;8.90;74.20;;;;;;2374823;56;21617;-60
2022/11/13 02:30:29;;;;;;;26.65;14.48;;;8.80;74.30;;;;;;2374828;56;21028;-60
2022/11/13 02:32:58;;;;;;;23.90;14.45;;;8.90;74.50;;;;;;2374616;56;21098;-60
2022/11/13 02:35:27;;;;;;;28.02;16.58;;;8.90;74.40;;;;;;2374935;56;21506;-60
2022/11/13 02:37:57;;;;;;;25.30;14.73;;;8.90;74.40;;;;;;2374630;56;21095;-60
2022/11/13 02:40:25;;;;;;;26.23;14.68;;;8.90;74.50;;;;;;2375045;56;21056;-60
2022/11/13 02:42:52;;;;;;;26.08;14.82;;;8.90;74.60;;;;;;2375030;56;21103;-60
2022/11/13 02:45:20;;;;;;;23.58;13.82;;;8.90;74.80;;;;;;2374949;56;21622;-60
2022/11/13 02:47:47;;;;;;;22.17;14.40;;;9.00;74.90;;;;;;2373391;56;21514;-60
2022/11/13 02:50:15;;;;;;;23.00;13.93;;;9.00;74.90;;;;;;2374558;56;21056;-60
2022/11/13 02:52:42;;;;;;;26.67;15.15;;;9.00;74.80;;;;;;2374871;56;21099;-59
2022/11/13 02:55:10;;;;;;;23.55;14.30;;;9.00;74.70;;;;;;2374912;56;21621;-60
2022/11/13 02:57:37;;;;;;;20.37;11.77;;;9.00;74.60;;;;;;2373961;56;21256;-61
2022/11/13 03:00:07;;;;;;;20.73;12.75;;;9.00;74.60;;;;;;2374995;56;21052;-59
2022/11/13 03:02:34;;;;;;;20.20;13.02;;;9.00;74.70;;;;;;2374995;56;21574;-59
2022/11/13 03:05:01;;;;;;;19.02;11.88;;;9.00;74.80;;;;;;2374498;56;21095;-61
2022/11/13 03:07:29;;;;;;;22.45;12.48;;;9.00;74.80;;;;;;2374666;56;21542;-61
2022/11/13 03:09:56;;;;;;;24.27;13.70;;;9.00;74.80;;;;;;2374729;56;21566;-61
2022/11/13 03:12:24;;;;;;;20.73;11.52;;;9.00;74.90;;;;;;2374980;56;21531;-60
2022/11/13 03:14:51;;;;;;;22.58;13.27;;;9.00;75.00;;;;;;2374868;56;21574;-61
2022/11/13 03:17:18;;;;;;;22.45;12.68;;;9.00;74.90;;;;;;2375121;56;21131;-61
2022/11/13 03:19:45;;;;;;;22.33;13.50;;;9.00;74.90;;;;;;2375218;56;21110;-60
2022/11/13 03:22:13;;;;;;;21.65;12.80;;;9.00;75.10;;;;;;2373857;56;21538;-60
2022/11/13 03:24:40;;;;;;;19.80;11.98;;;9.10;75.20;;;;;;2374932;56;21036;-59
2022/11/13 03:27:07;;;;;;;21.15;12.90;;;9.10;75.30;;;;;;2374932;56;21535;-59
2022/11/13 03:29:35;;;;;;;22.05;13.73;;;9.00;75.30;;;;;;2374899;56;21535;-56
2022/11/13 03:32:02;;;;;;;20.27;12.60;;;9.10;75.20;;;;;;2374870;56;21562;-59
2022/11/13 03:34:30;;;;;;;19.58;11.57;;;9.10;75.00;;;;;;2374859;56;21111;-59
2022/11/13 03:36:57;;;;;;;21.35;13.15;;;9.10;75.00;;;;;;2374683;56;21064;-59
2022/11/13 03:39:24;;;;;;;21.40;12.32;;;9.10;75.00;;;;;;2374731;56;21721;-58
2022/11/13 03:41:51;;;;;;;24.23;14.18;;;9.10;75.00;;;;;;2374478;56;21587;-58
2022/11/13 03:44:18;;;;;;;19.10;11.85;;;9.10;74.90;;;;;;2375173;56;21519;-59
2022/11/13 03:46:46;;;;;;;30.30;15.55;;;9.10;74.90;;;;;;2374936;56;21039;-59
2022/11/13 03:49:13;;;;;;;33.47;18.25;;;9.10;75.20;;;;;;2375026;56;21106;-59
2022/11/13 03:51:40;;;;;;;34.25;17.55;;;9.10;75.80;;;;;;2374621;56;21040;-61
2022/11/13 03:54:07;;;;;;;26.75;15.68;;;9.10;76.40;;;;;;2374563;56;21060;-61
2022/11/13 03:56:35;;;;;;;35.35;18.87;;;9.00;76.80;;;;;;2374800;56;21048;-60
2022/11/13 03:59:02;;;;;;;34.28;18.80;;;9.10;77.20;;;;;;2374373;56;21629;-59
2022/11/13 04:01:29;;;;;;;31.37;17.67;;;9.10;77.60;;;;;;2374665;56;21080;-60
2022/11/13 04:03:56;;;;;;;33.65;17.08;;;9.10;78.00;;;;;;2374634;56;21071;-60
2022/11/13 04:06:23;;;;;;;31.23;16.33;;;9.10;78.20;;;;;;2374762;56;21183;-60
2022/11/13 04:08:51;;;;;;;28.30;16.45;;;9.10;78.40;;;;;;2374989;56;21055;-60
2022/11/13 04:11:18;;;;;;;33.92;16.90;;;9.10;78.50;;;;;;2374214;56;21126;-62
2022/11/13 04:13:45;;;;;;;27.48;15.68;;;9.10;78.30;;;;;;2374400;56;21519;-60
2022/11/13 04:16:13;;;;;;;27.37;15.80;;;9.10;78.00;;;;;;2374598;56;21112;-60
2022/11/13 04:18:40;;;;;;;34.88;17.62;;;9.20;77.90;;;;;;2374792;56;21071;-60
2022/11/13 04:21:08;;;;;;;28.90;15.38;;;9.20;77.90;;;;;;2374734;56;21570;-60
2022/11/13 04:23:35;;;;;;;29.58;15.07;;;9.20;77.80;;;;;;2374872;56;21622;-60
2022/11/13 04:26:02;;;;;;;27.23;15.45;;;9.20;77.70;;;;;;2374712;56;21060;-60
2022/11/13 04:28:29;;;;;;;34.50;17.60;;;9.20;77.90;;;;;;2374782;56;21036;-60
2022/11/13 04:30:57;;;;;;;24.98;15.13;;;9.20;77.90;;;;;;2374445;56;21053;-60
2022/11/13 04:33:24;;;;;;;29.55;16.87;;;9.20;78.70;;;;;;2374578;56;21056;-59
2022/11/13 04:35:51;;;;;;;26.02;14.55;;;9.20;77.60;;;;;;2374661;56;21103;-59
2022/11/13 04:38:19;;;;;;;30.23;17.42;;;9.30;77.50;;;;;;2374610;56;21044;-60
2022/11/13 04:40:49;;;;;;;33.25;18.48;;;9.20;77.30;;;;;;2374535;56;21036;-59
2022/11/13 04:43:16;;;;;;;31.50;16.20;;;9.20;77.20;;;;;;2374361;56;21095;-60
2022/11/13 04:45:44;;;;;;;27.48;16.55;;;9.30;77.10;;;;;;2374736;56;21040;-60
2022/11/13 04:48:11;;;;;;;26.37;15.25;;;9.30;77.10;;;;;;2374228;56;21538;-59
2022/11/13 04:50:38;;;;;;;25.75;15.05;;;9.20;77.10;;;;;;2374256;56;21115;-60
2022/11/13 04:53:05;;;;;;;27.77;15.77;;;9.30;77.30;;;;;;2374762;56;21127;-60
2022/11/13 04:55:33;;;;;;;25.30;15.40;;;9.30;77.40;;;;;;2374577;56;21162;-59
2022/11/13 04:58:00;;;;;;;24.98;14.82;;;9.20;77.30;;;;;;2375142;56;21048;-60
2022/11/13 05:00:27;;;;;;;25.80;15.23;;;9.20;77.10;;;;;;2374533;56;21043;-60
2022/11/13 05:02:56;;;;;;;34.20;18.45;;;9.20;77.20;;;;;;2375063;56;21067;-60
2022/11/13 05:05:23;;;;;;;30.48;17.27;;;9.30;77.30;;;;;;2375029;56;21107;-59
2022/11/13 05:07:51;;;;;;;18.48;11.82;;;9.30;77.10;;;;;;2374506;56;21569;-60
2022/11/13 05:10:18;;;;;;;23.45;12.55;;;9.20;76.80;;;;;;2374697;56;21578;-59
2022/11/13 05:12:46;;;;;;;21.92;13.23;;;9.30;76.80;;;;;;2374866;56;21056;-59
2022/11/13 05:15:13;;;;;;;25.02;15.07;;;9.30;76.80;;;;;;2374745;56;21083;-59
2022/11/13 05:17:40;;;;;;;30.40;15.93;;;9.20;76.60;;;;;;2375164;56;21515;-59
2022/11/13 05:20:10;;;;;;;33.75;18.20;;;9.20;76.50;;;;;;2374598;56;21099;-60
2022/11/13 05:22:37;;;;;;;30.25;17.62;;;9.30;76.60;;;;;;2374853;56;21166;-60
2022/11/13 05:25:06;;;;;;;26.10;14.93;;;9.20;76.70;;;;;;2374204;56;21056;-58
2022/11/13 05:27:33;;;;;;;35.80;17.73;;;9.20;76.60;;;;;;2375086;56;21091;-59
2022/11/13 05:30:01;;;;;;;28.48;17.17;;;9.20;76.90;;;;;;2374686;56;21111;-60
2022/11/13 05:32:28;;;;;;;37.17;19.12;;;9.20;77.30;;;;;;2374810;56;21546;-59
2022/11/13 05:34:55;;;;;;;33.20;17.52;;;9.10;77.40;;;;;;2374821;56;21067;-59
2022/11/13 05:37:22;;;;;;;28.17;16.77;;;9.20;77.50;;;;;;2375028;56;21111;-59
2022/11/13 05:39:50;;;;;;;29.67;17.17;;;9.20;77.30;;;;;;2374420;56;21039;-60
2022/11/13 05:42:17;;;;;;;32.55;17.90;;;9.20;77.40;;;;;;2374066;56;21052;-56
2022/11/13 05:44:44;;;;;;;31.60;18.80;;;9.20;77.70;;;;;;2374686;56;21047;-58
2022/11/13 05:47:11;;;;;;;30.23;17.95;;;9.10;77.90;;;;;;2375154;56;21047;-57
2022/11/13 05:49:38;;;;;;;24.85;15.75;;;9.20;79.00;;;;;;2374660;56;21511;-54
2022/11/13 05:52:06;;;;;;;23.40;13.25;;;9.30;79.80;;;;;;2374477;56;21056;-57
2022/11/13 05:54:33;;;;;;;22.15;13.15;;;9.30;79.20;;;;;;2374461;56;21044;-57
2022/11/13 05:57:00;;;;;;;27.75;15.52;;;9.30;78.50;;;;;;2373868;56;21115;-58
2022/11/13 05:59:27;;;;;;;28.45;14.80;;;9.30;78.00;;;;;;2374424;56;21135;-58
2022/11/13 06:01:55;;;;;;;28.55;16.73;;;9.30;77.60;;;;;;2374973;56;21106;-56
2022/11/13 06:04:22;;;;;;;34.63;18.55;;;9.30;77.30;;;;;;2375053;56;21515;-56
2022/11/13 06:06:49;;;;;;;33.47;19.20;;;9.30;77.40;;;;;;2372727;56;21099;-57
2022/11/13 06:09:17;;;;;;;40.35;18.90;;;9.30;77.50;;;;;;2372744;56;21559;-56
2022/11/13 06:11:44;;;;;;;41.63;20.40;;;9.30;77.50;;;;;;2373881;56;21032;-58
2022/11/13 06:14:11;;;;;;;34.13;19.58;;;9.20;78.50;;;;;;2373877;56;21057;-58
2022/11/13 06:16:39;;;;;;;37.90;19.67;;;9.20;77.70;;;;;;2374266;56;21052;-57
2022/11/13 06:19:08;;;;;;;44.38;22.85;;;9.20;77.90;;;;;;2373842;56;21234;-57
2022/11/13 06:21:38;;;;;;;35.17;19.60;;;9.20;78.10;;;;;;2374083;56;21511;-58
2022/11/13 06:24:07;;;;;;;32.38;18.90;;;9.20;78.10;;;;;;2374153;56;21108;-56
2022/11/13 06:26:35;;;;;;;37.65;21.20;;;9.20;78.20;;;;;;2374569;56;21059;-56
2022/11/13 06:29:04;;;;;;;35.60;18.37;;;9.20;78.20;;;;;;2374553;56;21052;-58
2022/11/13 06:31:34;;;;;;;29.60;17.30;;;9.20;78.40;;;;;;2373403;56;21587;-57
2022/11/13 06:34:02;;;;;;;32.90;19.15;;;9.10;78.50;;;;;;2374101;56;21119;-56
2022/11/13 06:36:32;;;;;;;37.72;20.80;;;9.10;78.50;;;;;;2374238;56;21587;-57
2022/11/13 06:38:59;;;;;;;28.65;16.62;;;9.10;78.60;;;;;;2375216;56;21605;-56
2022/11/13 06:41:28;;;;;;;83.18;30.08;;;9.10;78.60;;;;;;2374928;56;21087;-58
2022/11/13 06:43:56;;;;;;;45.17;20.42;;;9.10;78.90;;;;;;2374409;56;21186;-56
2022/11/13 06:46:26;;;;;;;35.03;19.00;;;9.10;79.20;;;;;;2374914;56;21531;-56
2022/11/13 06:48:53;;;;;;;40.85;20.65;;;9.10;79.40;;;;;;2373711;56;21544;-56
2022/11/13 06:51:23;;;;;;;38.60;20.10;;;9.10;79.60;;;;;;2374561;56;21655;-56
2022/11/13 06:53:51;;;;;;;39.80;19.40;;;9.10;79.80;;;;;;2374543;56;22395;-55
2022/11/13 06:56:19;;;;;;;36.60;19.87;;;9.10;79.90;;;;;;2374753;56;21702;-56
2022/11/13 06:58:46;;;;;;;37.20;20.85;;;9.10;80.10;;;;;;2374884;56;21602;-56
2022/11/13 07:01:16;;;;;;;37.75;19.55;;;9.10;80.20;;;;;;2373810;56;21075;-58
2022/11/13 07:03:44;;;;;;;36.15;19.83;;;9.10;80.40;;;;;;2374356;56;21059;-58
2022/11/13 07:06:13;;;;;;;42.60;19.62;;;9.10;80.60;;;;;;2374355;56;21499;-58
2022/11/13 07:08:41;;;;;;;38.70;19.23;;;9.20;80.90;;;;;;2373822;56;21519;-56
2022/11/13 07:11:11;;;;;;;36.58;18.27;;;9.20;81.00;;;;;;2373888;56;21115;-57
2022/11/13 07:13:39;;;;;;;32.83;16.55;;;9.20;81.10;;;;;;2373929;56;21067;-55
2022/11/13 07:16:09;;;;;;;30.33;16.42;;;9.20;81.10;;;;;;2374009;56;21590;-57
2022/11/13 07:18:37;;;;;;;34.10;16.15;;;9.20;81.20;;;;;;2374377;56;21139;-56
2022/11/13 07:21:06;;;;;;;31.17;16.80;;;9.30;81.30;;;;;;2374317;56;21111;-56
2022/11/13 07:23:35;;;;;;;28.45;16.10;;;9.30;81.50;;;;;;2373887;56;21064;-56
2022/11/13 07:26:03;;;;;;;31.00;16.80;;;9.30;81.50;;;;;;2375043;56;21036;-58
2022/11/13 07:28:30;;;;;;;34.25;16.58;;;9.40;81.50;;;;;;2374358;56;21040;-56
2022/11/13 07:30:58;;;;;;;28.10;15.43;;;9.40;81.40;;;;;;2374547;56;21119;-57
2022/11/13 07:33:26;;;;;;;28.00;14.93;;;9.40;81.60;;;;;;2373482;56;21522;-55
2022/11/13 07:35:53;;;;;;;28.73;15.85;;;9.50;81.70;;;;;;2374316;56;21056;-57
2022/11/13 07:38:21;;;;;;;32.33;17.05;;;9.50;81.70;;;;;;2374121;56;21538;-56
2022/11/13 07:40:49;;;;;;;37.22;17.33;;;9.50;81.60;;;;;;2373368;56;21031;-56
2022/11/13 07:43:16;;;;;;;35.95;17.00;;;9.60;81.70;;;;;;2374636;56;21602;-54
2022/11/13 07:45:43;;;;;;;29.73;16.08;;;9.60;81.80;;;;;;2372727;56;21626;-58
2022/11/13 07:48:11;;;;;;;29.80;16.37;;;9.60;81.90;;;;;;2373444;56;21130;-58
2022/11/13 07:50:38;;;;;;;34.55;17.52;;;9.70;82.00;;;;;;2373018;56;21095;-54
2022/11/13 07:53:09;;;;;;;28.23;15.02;;;9.70;82.70;;;;;;2373124;56;21648;-58
2022/11/13 07:55:37;;;;;;;32.58;17.37;;;9.70;82.00;;;;;;2373638;56;21059;-58
2022/11/13 07:58:05;;;;;;;27.75;15.85;;;9.80;82.10;;;;;;2374023;56;21605;-58
2022/11/13 08:00:33;;;;;;;26.00;15.35;;;9.80;82.00;;;;;;2373488;56;21201;-57
2022/11/13 08:03:05;;;;;;;35.50;17.95;;;9.80;82.00;;;;;;2372938;56;21040;-57
2022/11/13 08:05:32;;;;;;;32.90;17.58;;;9.80;81.90;;;;;;2373781;56;21527;-54
2022/11/13 08:08:00;;;;;;;30.25;16.15;;;9.90;81.80;;;;;;2373677;56;21127;-56
2022/11/13 08:10:27;;;;;;;33.60;16.30;;;9.90;81.90;;;;;;2373822;56;21119;-58
2022/11/13 08:13:00;;;;;;;30.27;15.52;;;9.90;81.80;;;;;;2373750;56;21115;-58
2022/11/13 08:15:28;;;;;;;34.28;17.23;;;9.90;81.70;;;;;;2374369;56;21055;-56
2022/11/13 08:17:56;;;;;;;35.80;18.52;;;10.00;81.70;;;;;;2373602;56;21046;-57
2022/11/13 08:20:25;;;;;;;38.38;19.23;;;10.00;81.50;;;;;;2571488;52;21612;-56
2022/11/13 08:22:55;;;;;;;27.73;15.68;;;10.00;81.60;;;;;;2449353;53;21057;-58
2022/11/13 08:25:22;;;;;;;34.15;17.20;;;10.00;81.60;;;;;;2347345;57;21840;-57
2022/11/13 08:27:52;;;;;;;32.92;17.60;;;10.00;81.50;;;;;;2346253;57;21058;-58
2022/11/13 08:30:21;;;;;;;35.13;18.37;;;10.00;81.50;;;;;;2346516;57;21520;-55
2022/11/13 08:32:48;;;;;;;36.05;17.95;;;10.10;82.30;;;;;;2346074;57;21580;-56
2022/11/13 08:35:16;;;;;;;30.05;15.45;;;10.10;81.60;;;;;;2346099;57;21034;-57
2022/11/13 08:37:43;;;;;;;25.65;14.75;;;10.20;81.60;;;;;;2346282;57;21572;-57
2022/11/13 08:40:12;;;;;;;32.78;17.17;;;10.20;81.50;;;;;;2346618;57;21066;-58
2022/11/13 08:42:39;;;;;;;44.10;21.17;;;10.20;81.50;;;;;;2346578;57;21031;-57
2022/11/13 08:45:09;;;;;;;32.40;17.37;;;10.20;81.70;;;;;;2346762;57;21038;-57
2022/11/13 08:47:36;;;;;;;40.20;19.23;;;10.30;81.40;;;;;;2346659;57;21105;-56
2022/11/13 08:50:05;;;;;;;35.78;18.60;;;10.30;81.50;;;;;;2346385;57;21050;-57
2022/11/13 08:52:32;;;;;;;36.53;19.25;;;10.30;81.50;;;;;;2346070;57;21576;-56
2022/11/13 08:54:59;;;;;;;37.95;18.05;;;10.30;81.50;;;;;;2346617;57;21129;-56
2022/11/13 08:57:27;;;;;;;34.65;16.77;;;10.40;81.30;;;;;;2346130;57;21070;-56
2022/11/13 08:59:54;;;;;;;38.60;19.50;;;10.30;81.40;;;;;;2346053;57;21050;-57
2022/11/13 09:02:21;;;;;;;32.00;18.58;;;10.30;81.30;;;;;;2346131;57;21066;-58
2022/11/13 09:04:48;;;;;;;37.88;18.52;;;10.40;81.30;;;;;;2345910;57;21082;-56
2022/11/13 09:07:15;;;;;;;32.28;17.30;;;10.40;81.20;;;;;;2346507;57;21066;-57
2022/11/13 09:09:43;;;;;;;30.15;16.87;;;10.40;81.00;;;;;;2344882;57;21050;-58
2022/11/13 09:12:10;;;;;;;33.67;18.00;;;10.40;81.10;;;;;;2346219;57;21050;-53
2022/11/13 09:14:37;;;;;;;39.60;20.50;;;10.50;81.00;;;;;;2346095;57;21093;-58
2022/11/13 09:17:05;;;;;;;38.38;19.55;;;10.50;80.80;;;;;;2345708;57;22396;-59
2022/11/13 09:19:32;;;;;;;39.63;18.27;;;10.50;80.90;;;;;;2345697;57;21528;-59
2022/11/13 09:21:59;;;;;;;33.15;18.73;;;10.50;81.00;;;;;;2345623;57;21540;-56
2022/11/13 09:24:26;;;;;;;36.67;19.95;;;10.50;80.90;;;;;;2345052;57;21172;-60
2022/11/13 09:26:54;;;;;;;36.22;20.15;;;10.50;80.80;;;;;;2345620;57;21038;-60
2022/11/13 09:29:22;;;;;;;41.10;19.45;;;10.50;80.70;;;;;;2343265;57;21086;-56
2022/11/13 09:31:50;;;;;;;37.67;19.87;;;10.60;80.90;;;;;;2343408;57;21058;-57
2022/11/13 09:34:17;;;;;;;40.67;20.20;;;10.60;80.60;;;;;;2343258;57;21066;-56
2022/11/13 09:36:44;;;;;;;39.05;19.90;;;10.50;80.30;;;;;;2344964;57;22154;-50
2022/11/13 09:39:12;;;;;;;36.10;19.40;;;10.50;80.40;;;;;;2345561;57;21623;-61
2022/11/13 09:41:44;;;;;;;34.08;19.05;;;10.50;80.60;;;;;;2343935;57;21094;-59
2022/11/13 09:44:16;;;;;;;39.83;20.27;;;10.50;80.80;;;;;;2345467;57;21581;-61
2022/11/13 09:46:48;;;;;;;38.20;19.73;;;10.50;80.90;;;;;;2345001;57;21525;-61
2022/11/13 09:49:17;;;;;;;35.70;18.23;;;10.50;80.70;;;;;;2345783;57;21504;-62
2022/11/13 09:51:50;;;;;;;33.00;18.40;;;10.50;80.60;;;;;;2344677;57;21046;-62
2022/11/13 09:54:18;;;;;;;35.88;18.42;;;10.50;80.80;;;;;;2345409;57;21117;-60
2022/11/13 09:56:54;;;;;;;32.60;17.80;;;10.50;80.90;;;;;;2345183;57;21054;-59
2022/11/13 10:02:17;;;;;;;33.88;18.60;;;10.60;80.80;;;;;;2355241;57;22481;-62
2022/11/13 10:04:55;;;;;;;36.25;18.80;;;10.60;80.70;;;;;;2346490;57;21092;-64
2022/11/13 10:07:31;;;;;;;37.58;19.40;;;10.60;80.60;;;;;;2345239;57;21125;-64
2022/11/13 10:10:19;;;;;;;36.50;19.75;;;10.60;80.40;;;;;;2346167;57;21569;-61
2022/11/13 10:12:50;;;;;;;30.85;16.15;;;10.60;80.30;;;;;;2344704;57;21537;-61
2022/11/13 10:15:19;;;;;;;33.90;18.40;;;10.60;80.30;;;;;;2345070;57;21022;-62
2022/11/13 10:17:51;;;;;;;34.40;19.00;;;10.60;80.50;;;;;;2344793;57;21101;-62
2022/11/13 10:20:23;;;;;;;34.97;18.25;;;10.50;80.50;;;;;;2345228;57;21129;-63
2022/11/13 10:22:51;;;;;;;34.35;19.58;;;10.50;80.60;;;;;;2344593;57;21552;-60
2022/11/13 10:25:21;;;;;;;30.95;17.85;;;10.50;80.80;;;;;;2345146;57;21042;-54
2022/11/13 10:27:57;;;;;;;35.45;18.48;;;10.60;81.00;;;;;;2345371;57;21585;-59
2022/11/13 10:30:24;;;;;;;37.50;19.02;;;10.60;80.90;;;;;;2342660;57;21508;-56
2022/11/13 10:32:51;;;;;;;35.15;18.37;;;10.60;80.70;;;;;;2345523;57;21066;-57
2022/11/13 10:35:52;;;;;;;36.63;18.48;;;10.60;80.80;;;;;;2345702;57;21612;-56
2022/11/13 10:38:27;;;;;;;36.95;19.62;;;10.60;80.90;;;;;;2345549;57;21603;-53
2022/11/13 10:41:06;;;;;;;37.78;19.05;;;10.60;80.80;;;;;;2344595;57;21065;-56
2022/11/13 10:43:35;;;;;;;30.98;18.12;;;10.60;80.90;;;;;;2345386;57;21614;-57
2022/11/13 10:46:05;;;;;;;29.80;17.58;;;10.60;80.90;;;;;;2345383;57;21544;-55
2022/11/13 10:48:34;;;;;;;33.75;17.45;;;10.60;80.90;;;;;;2344351;57;21027;-57
2022/11/13 10:51:04;;;;;;;36.35;19.17;;;10.60;80.90;;;;;;2344690;57;22619;-53
2022/11/13 10:53:39;;;;;;;34.28;16.50;;;10.60;80.90;;;;;;2345755;57;21030;-55
2022/11/13 10:56:20;;;;;;;32.85;17.15;;;10.60;81.00;;;;;;2345724;57;21042;-53
2022/11/13 10:59:07;;;;;;;29.85;17.08;;;10.60;81.20;;;;;;2345609;57;21569;-54
2022/11/13 11:01:35;;;;;;;33.45;17.83;;;10.60;81.20;;;;;;2345488;57;21658;-55
2022/11/13 11:04:04;;;;;;;32.85;17.48;;;10.60;81.30;;;;;;2344752;57;21604;-55
2022/11/13 11:06:33;;;;;;;29.90;17.33;;;10.70;81.60;;;;;;2344900;57;21030;-57
2022/11/13 11:09:17;;;;;;;33.78;18.33;;;10.70;81.60;;;;;;2345794;57;21030;-56
2022/11/13 11:14:36;;;;;;;30.85;16.20;;;10.80;81.60;;;;;;2344375;57;20138;-53
2022/11/13 11:17:05;;;;;;;28.75;15.93;;;10.80;81.20;;;;;;2344115;57;21057;-56
2022/11/13 11:19:36;;;;;;;30.25;14.50;;;10.80;81.50;;;;;;2344270;57;21093;-57
2022/11/13 11:22:11;;;;;;;26.00;14.02;;;10.80;81.50;;;;;;2343087;57;21062;-53
2022/11/13 11:24:42;;;;;;;29.67;15.35;;;10.80;81.60;;;;;;2344260;57;21034;-53
2022/11/13 11:27:14;;;;;;;28.15;15.05;;;10.80;81.60;;;;;;2345078;57;21513;-55
2022/11/13 11:29:49;;;;;;;27.23;14.32;;;10.90;81.60;;;;;;2344471;57;21568;-55
2022/11/13 11:32:23;;;;;;;29.05;15.77;;;10.90;81.60;;;;;;2344727;57;21053;-57
2022/11/13 11:34:59;;;;;;;29.87;15.50;;;11.00;81.50;;;;;;2344816;57;21522;-56
2022/11/13 11:40:12;;;;;;;25.37;16.05;;;11.00;81.40;;;;;;2279349;58;28415;-56
2022/11/13 11:42:45;;;;;;;23.85;14.90;;;11.00;82.40;;;;;;2290586;58;21102;-53
2022/11/13 11:45:20;;;;;;;29.67;13.68;;;11.10;81.60;;;;;;2298736;58;21694;-58
2022/11/13 11:47:47;;;;;;;22.62;12.80;;;11.20;80.90;;;;;;2317718;58;21639;-52
2022/11/13 11:50:17;;;;;;;23.83;13.38;;;11.20;80.40;;;;;;2317420;58;21096;-58
2022/11/13 11:52:55;;;;;;;23.90;12.73;;;11.20;80.10;;;;;;2315862;58;21612;-58
2022/11/13 11:55:52;;;;;;;17.85;11.88;;;11.20;79.90;;;;;;2316593;58;21136;-56
2022/11/13 12:01:16;;;;;;;23.05;12.55;;;11.30;79.60;;;;;;2246693;60;22593;-56
2022/11/13 12:04:11;;;;;;;25.80;14.13;;;11.30;79.50;;;;;;2263769;59;21572;-53
2022/11/13 12:06:48;;;;;;;24.00;13.68;;;11.30;79.40;;;;;;2263304;59;21549;-52
2022/11/13 12:09:27;;;;;;;26.65;13.95;;;11.30;79.40;;;;;;2262814;59;21139;-59
2022/11/13 12:12:02;;;;;;;22.50;13.70;;;11.30;79.20;;;;;;2263437;59;21072;-59
2022/11/13 12:14:40;;;;;;;19.90;13.05;;;11.30;79.20;;;;;;2262302;59;21068;-58
2022/11/13 12:19:59;;;;;;;22.40;13.98;;;11.30;79.10;;;;;;2328684;57;22605;-57
2022/11/13 12:22:45;;;;;;;18.30;11.15;;;11.30;79.20;;;;;;2346627;57;22491;-59
2022/11/13 12:25:19;;;;;;;20.52;13.13;;;11.30;79.20;;;;;;2346378;57;21881;-58
2022/11/13 12:27:54;;;;;;;18.40;11.65;;;11.40;79.20;;;;;;2344612;57;21081;-58
2022/11/13 12:30:27;;;;;;;20.80;13.23;;;11.40;79.20;;;;;;2345429;57;21049;-58
2022/11/13 12:33:07;;;;;;;24.77;13.45;;;11.40;79.00;;;;;;2529495;53;21065;-55
2022/11/13 12:35:36;;;;;;;21.05;12.43;;;11.40;78.90;;;;;;2346163;57;21029;-56
2022/11/13 12:38:11;;;;;;;21.12;12.10;;;11.50;78.60;;;;;;2346443;57;21359;-57
2022/11/13 12:40:42;;;;;;;24.50;13.02;;;11.40;78.30;;;;;;2346166;57;21076;-56
2022/11/13 12:43:47;;;;;;;20.92;12.37;;;11.40;78.30;;;;;;2345971;57;21591;-57
2022/11/13 12:46:14;;;;;;;21.60;13.00;;;11.40;78.30;;;;;;2346160;57;21598;-56
2022/11/13 12:48:43;;;;;;;22.90;12.98;;;11.50;78.10;;;;;;2346028;57;21117;-56
2022/11/13 12:51:12;;;;;;;18.83;12.48;;;11.50;78.10;;;;;;2346519;57;21643;-57
2022/11/13 12:53:48;;;;;;;23.17;13.15;;;11.50;77.90;;;;;;2346389;57;21025;-59
2022/11/13 12:56:28;;;;;;;21.10;12.27;;;11.40;77.80;;;;;;2346050;57;21524;-57
2022/11/13 12:58:58;;;;;;;22.33;13.35;;;11.40;77.70;;;;;;2345639;57;21026;-58
2022/11/13 13:01:27;;;;;;;21.77;13.30;;;11.40;77.70;;;;;;2345392;57;21041;-56